createdAt,value
2023-02-24T00:01:51.008Z,9.65
2023-02-24T00:04:19.094Z,8.93
2023-02-24T00:06:46.221Z,9.01
2023-02-24T00:09:16.591Z,9.01
2023-02-24T00:11:45.651Z,8.73
2023-02-24T00:14:19.206Z,9.08
2023-02-24T00:16:47.200Z,9.32
2023-02-24T00:19:18.169Z,9.34
2023-02-24T00:21:45.366Z,9.67
2023-02-24T00:24:12.752Z,9.24
2023-02-24T00:26:40.223Z,9.51
2023-02-24T00:29:09.843Z,9.41
2023-02-24T00:31:39.763Z,9.69
2023-02-24T00:34:07.272Z,9.79
2023-02-24T00:36:34.865Z,9.81
2023-02-24T00:39:11.791Z,9.49
2023-02-24T00:41:43.239Z,9.55
2023-02-24T00:44:13.089Z,9.74
2023-02-24T00:46:42.804Z,10.34
2023-02-24T00:49:17.304Z,10.46
2023-02-24T00:51:49.137Z,9.91
2023-02-24T00:54:17.025Z,10.05
2023-02-24T00:56:45.465Z,10.17
2023-02-24T00:59:13.731Z,10.40
2023-02-24T01:01:41.996Z,10.27
2023-02-24T01:04:12.166Z,10.62
2023-02-24T01:06:45.159Z,11.09
2023-02-24T01:09:18.004Z,10.92
2023-02-24T01:12:04.939Z,10.78
2023-02-24T01:14:34.259Z,10.53
2023-02-24T01:17:01.778Z,10.48
2023-02-24T01:19:31.731Z,10.38
2023-02-24T01:22:01.250Z,10.23
2023-02-24T01:24:39.402Z,10.38
2023-02-24T01:27:07.145Z,9.95
2023-02-24T01:29:39.471Z,9.54
2023-02-24T01:32:13.087Z,9.92
2023-02-24T01:34:42.623Z,10.06
2023-02-24T01:37:10.336Z,9.97
2023-02-24T01:39:37.525Z,10.10
2023-02-24T01:42:06.603Z,10.14
2023-02-24T01:44:33.462Z,10.08
2023-02-24T01:47:04.062Z,9.88
2023-02-24T01:49:39.538Z,9.89
2023-02-24T01:52:09.360Z,9.83
2023-02-24T01:54:43.159Z,9.82
2023-02-24T01:57:20.014Z,10.34
2023-02-24T01:59:48.819Z,10.60
2023-02-24T02:02:15.957Z,10.75
2023-02-24T02:04:55.031Z,10.35
2023-02-24T02:07:23.914Z,10.02
2023-02-24T02:09:54.782Z,10.46
2023-02-24T02:12:23.291Z,10.25
2023-02-24T02:14:54.987Z,10.42
2023-02-24T02:17:41.091Z,10.47
2023-02-24T02:20:36.949Z,10.11
2023-02-24T02:23:22.260Z,10.13
2023-02-24T02:26:11.021Z,10.01
2023-02-24T02:28:54.163Z,10.03
2023-02-24T02:31:42.479Z,9.89
2023-02-24T02:34:15.670Z,10.05
2023-02-24T02:36:59.986Z,9.48
2023-02-24T02:39:35.597Z,9.46
2023-02-24T02:42:14.471Z,9.65
2023-02-24T02:44:47.735Z,9.76
2023-02-24T02:47:24.134Z,10.01
2023-02-24T02:50:08.313Z,10.12
2023-02-24T02:52:55.848Z,9.88
2023-02-24T02:55:50.062Z,9.76
2023-02-24T02:58:20.875Z,9.46
2023-02-24T03:01:02.984Z,9.71
2023-02-24T03:03:33.148Z,9.34
2023-02-24T03:06:05.215Z,9.32
2023-02-24T03:08:37.333Z,9.37
2023-02-24T03:11:08.265Z,9.25
2023-02-24T03:13:39.597Z,9.21
2023-02-24T03:16:07.171Z,8.92
2023-02-24T03:18:41.078Z,8.93
2023-02-24T03:21:16.002Z,8.53
2023-02-24T03:23:53.048Z,8.71
2023-02-24T03:26:29.112Z,8.60
2023-02-24T03:29:03.493Z,8.84
2023-02-24T03:31:40.254Z,9.08
2023-02-24T03:34:29.450Z,9.32
2023-02-24T03:36:57.280Z,8.96
2023-02-24T03:39:24.813Z,9.01
2023-02-24T03:41:57.946Z,9.22
2023-02-24T03:44:25.134Z,9.37
2023-02-24T03:46:52.817Z,9.25
2023-02-24T03:49:20.623Z,9.13
2023-02-24T03:52:21.676Z,9.10
2023-02-24T03:54:59.331Z,8.72
2023-02-24T03:57:54.932Z,8.73
2023-02-24T04:00:34.374Z,9.03
2023-02-24T04:03:15.467Z,8.90
2023-02-24T04:05:53.261Z,8.57
2023-02-24T04:08:21.717Z,8.43
2023-02-24T04:10:54.894Z,8.13
2023-02-24T04:13:35.536Z,8.13
2023-02-24T04:16:17.081Z,8.05
2023-02-24T04:18:49.345Z,8.57
2023-02-24T04:21:18.157Z,8.86
2023-02-24T04:23:45.491Z,8.88
2023-02-24T04:26:14.314Z,9.08
2023-02-24T04:28:41.710Z,9.03
2023-02-24T04:31:17.726Z,9.07
2023-02-24T04:33:50.566Z,8.78
2023-02-24T04:36:18.860Z,9.26
2023-02-24T04:38:48.429Z,8.85
2023-02-24T04:41:21.847Z,9.14
2023-02-24T04:43:52.236Z,9.38
2023-02-24T04:46:23.572Z,8.90
2023-02-24T04:48:51.162Z,9.51
2023-02-24T04:51:21.226Z,9.57
2023-02-24T04:53:50.236Z,9.37
2023-02-24T04:56:18.824Z,9.29
2023-02-24T04:58:46.528Z,9.31
2023-02-24T05:01:13.535Z,9.30
2023-02-24T05:03:43.240Z,9.34
2023-02-24T05:06:17.451Z,9.26
2023-02-24T05:08:45.154Z,9.43
2023-02-24T05:11:16.290Z,8.78
2023-02-24T05:13:46.153Z,8.97
2023-02-24T05:16:15.585Z,9.22
2023-02-24T05:18:42.821Z,9.18
2023-02-24T05:21:35.673Z,9.12
2023-02-24T05:24:11.787Z,8.64
2023-02-24T05:26:42.025Z,9.04
2023-02-24T05:29:09.533Z,8.95
2023-02-24T05:31:37.598Z,9.04
2023-02-24T05:34:06.937Z,8.86
2023-02-24T05:36:40.487Z,9.02
2023-02-24T05:39:08.177Z,9.14
2023-02-24T05:41:42.090Z,8.92
2023-02-24T05:44:12.861Z,9.11
2023-02-24T05:46:41.713Z,9.05
2023-02-24T05:49:23.817Z,8.92
2023-02-24T05:51:55.747Z,9.19
2023-02-24T05:54:29.918Z,8.93
2023-02-24T05:57:02.417Z,8.68
2023-02-24T05:59:35.456Z,8.40
2023-02-24T06:02:09.490Z,8.30
2023-02-24T06:04:45.897Z,8.29
2023-02-24T06:07:22.238Z,8.30
2023-02-24T06:09:50.843Z,8.49
2023-02-24T06:12:18.538Z,8.35
2023-02-24T06:14:45.416Z,8.31
2023-02-24T06:17:12.710Z,8.56
2023-02-24T06:19:41.391Z,8.26
2023-02-24T06:22:12.011Z,8.30
2023-02-24T06:24:42.981Z,8.40
2023-02-24T06:27:10.598Z,8.40
2023-02-24T06:29:38.156Z,8.36
2023-02-24T06:32:11.203Z,8.47
2023-02-24T06:34:39.008Z,8.38
2023-02-24T06:37:07.402Z,8.35
2023-02-24T06:39:37.205Z,8.40
2023-02-24T06:42:05.284Z,8.48
2023-02-24T06:44:32.936Z,8.62
2023-02-24T06:46:59.959Z,8.51
2023-02-24T06:49:27.448Z,8.51
2023-02-24T06:51:55.049Z,8.80
2023-02-24T06:54:22.623Z,8.45
2023-02-24T06:56:50.423Z,8.73
2023-02-24T06:59:21.955Z,8.75
2023-02-24T07:01:49.802Z,9.03
2023-02-24T07:04:18.106Z,9.09
2023-02-24T07:06:50.464Z,9.07
2023-02-24T07:09:18.961Z,9.28
2023-02-24T07:11:48.528Z,9.09
2023-02-24T07:14:15.596Z,9.50
2023-02-24T07:16:45.667Z,9.48
2023-02-24T07:19:15.666Z,9.69
2023-02-24T07:21:46.845Z,9.73
2023-02-24T07:24:20.410Z,9.75
2023-02-24T07:26:51.946Z,9.61
2023-02-24T07:29:18.845Z,9.27
2023-02-24T07:31:45.897Z,9.55
2023-02-24T07:34:15.242Z,9.37
2023-02-24T07:36:49.430Z,9.33
2023-02-24T07:39:17.818Z,9.63
2023-02-24T07:41:45.815Z,9.53
2023-02-24T07:44:16.614Z,10.02
2023-02-24T07:46:43.869Z,10.19
2023-02-24T07:49:13.715Z,10.02
2023-02-24T07:51:40.844Z,10.20
2023-02-24T07:54:08.973Z,10.14
2023-02-24T07:56:46.159Z,10.39
2023-02-24T07:59:16.210Z,10.37
2023-02-24T08:01:49.937Z,10.05
2023-02-24T08:04:19.100Z,9.95
2023-02-24T08:06:48.120Z,10.18
2023-02-24T08:09:43.189Z,10.36
2023-02-24T08:12:11.308Z,10.22
2023-02-24T08:14:44.754Z,10.51
2023-02-24T08:17:12.832Z,10.70
2023-02-24T08:19:39.847Z,10.56
2023-02-24T08:22:21.073Z,10.50
2023-02-24T08:24:54.749Z,10.35
2023-02-24T08:27:24.335Z,10.54
2023-02-24T08:30:01.728Z,10.64
2023-02-24T08:32:38.600Z,10.27
2023-02-24T08:35:15.596Z,10.28
2023-02-24T08:37:47.970Z,10.29
2023-02-24T08:40:32.595Z,10.54
2023-02-24T08:43:25.642Z,10.67
2023-02-24T08:45:59.600Z,11.08
2023-02-24T08:48:37.564Z,10.89
2023-02-24T08:51:09.381Z,10.87
2023-02-24T08:53:40.628Z,11.00
2023-02-24T08:56:11.852Z,10.87
2023-02-24T08:58:41.277Z,10.99
2023-02-24T09:01:24.598Z,11.23
2023-02-24T09:03:57.052Z,11.46
2023-02-24T09:06:46.672Z,11.39
2023-02-24T09:09:21.009Z,11.36
2023-02-24T09:11:58.802Z,11.10
2023-02-24T09:14:38.983Z,11.18
2023-02-24T09:17:11.521Z,11.42
2023-02-24T09:20:01.600Z,11.27
2023-02-24T09:22:57.922Z,11.26
2023-02-24T09:25:40.796Z,11.11
2023-02-24T09:28:17.906Z,11.16
2023-02-24T09:30:53.731Z,11.00
2023-02-24T09:33:39.447Z,11.10
2023-02-24T09:36:35.671Z,11.66
2023-02-24T09:39:02.632Z,11.67
2023-02-24T09:41:54.859Z,12.11
2023-02-24T09:44:33.552Z,12.66
2023-02-24T09:47:09.272Z,13.62
2023-02-24T09:49:46.775Z,13.89
2023-02-24T09:52:18.450Z,14.44
2023-02-24T09:55:16.234Z,14.75
2023-02-24T09:58:06.943Z,14.82
2023-02-24T10:00:36.146Z,15.47
2023-02-24T10:03:30.237Z,15.25
2023-02-24T10:06:12.432Z,15.69
2023-02-24T10:08:46.813Z,15.24
2023-02-24T10:11:14.875Z,15.45
2023-02-24T10:13:50.448Z,15.45
2023-02-24T10:16:25.093Z,15.48
2023-02-24T10:19:16.825Z,15.43
2023-02-24T10:22:06.607Z,15.31
2023-02-24T10:24:47.592Z,15.35
2023-02-24T10:27:24.225Z,15.78
2023-02-24T10:30:06.014Z,15.96
2023-02-24T10:33:03.005Z,16.26
2023-02-24T10:35:39.439Z,16.24
2023-02-24T10:38:06.358Z,16.45
2023-02-24T10:40:47.108Z,16.58
2023-02-24T10:43:19.230Z,16.71
2023-02-24T10:45:47.414Z,16.96
2023-02-24T10:48:41.977Z,16.85
2023-02-24T10:51:20.167Z,16.83
2023-02-24T10:54:09.366Z,16.35
2023-02-24T10:56:44.619Z,16.36
2023-02-24T10:59:41.005Z,16.13
2023-02-24T11:02:29.895Z,16.01
2023-02-24T11:04:59.734Z,16.29
2023-02-24T11:07:44.066Z,15.80
2023-02-24T11:10:26.467Z,15.85
2023-02-24T11:13:13.694Z,15.93
2023-02-24T11:16:12.860Z,15.71
2023-02-24T11:18:40.368Z,15.44
2023-02-24T11:21:09.771Z,15.45
2023-02-24T11:23:44.242Z,15.33
2023-02-24T11:26:21.610Z,15.72
2023-02-24T11:29:25.995Z,16.38
2023-02-24T11:32:02.665Z,16.43
2023-02-24T11:34:49.698Z,16.33
2023-02-24T11:37:34.789Z,16.65
2023-02-24T11:40:15.899Z,16.47
2023-02-24T11:42:46.315Z,16.26
2023-02-24T11:45:43.647Z,16.34
2023-02-24T11:48:16.332Z,17.05
2023-02-24T11:50:54.436Z,16.65
2023-02-24T11:53:32.385Z,16.53
2023-02-24T11:56:07.331Z,16.66
2023-02-24T11:59:09.319Z,16.80
2023-02-24T12:01:42.111Z,16.67
2023-02-24T12:04:23.370Z,16.66
2023-02-24T12:06:59.499Z,16.77
2023-02-24T12:09:37.271Z,16.61
2023-02-24T12:12:14.006Z,16.62
2023-02-24T12:14:47.860Z,16.63
2023-02-24T12:17:24.372Z,16.57
2023-02-24T12:19:59.836Z,16.88
2023-02-24T12:22:31.396Z,17.10
2023-02-24T12:24:58.530Z,16.72
2023-02-24T12:27:49.509Z,16.41
2023-02-24T12:30:49.155Z,16.41
2023-02-24T12:33:35.058Z,16.58
2023-02-24T12:36:30.908Z,16.63
2023-02-24T12:39:28.591Z,16.58
2023-02-24T12:42:18.418Z,16.33
2023-02-24T12:44:49.950Z,16.11
2023-02-24T12:47:39.681Z,16.45
2023-02-24T12:50:24.708Z,16.42
2023-02-24T12:53:01.657Z,15.93
2023-02-24T12:55:34.981Z,16.37
2023-02-24T12:58:10.907Z,16.36
2023-02-24T13:01:06.414Z,16.69
2023-02-24T13:03:50.037Z,16.40
2023-02-24T13:06:33.474Z,16.51
2023-02-24T13:09:23.536Z,16.52
2023-02-24T13:11:56.602Z,16.35
2023-02-24T13:14:28.595Z,15.88
2023-02-24T13:17:20.119Z,15.80
2023-02-24T13:19:48.393Z,15.54
2023-02-24T13:22:16.966Z,15.71
2023-02-24T13:24:55.307Z,15.68
2023-02-24T13:27:25.155Z,15.87
2023-02-24T13:29:57.788Z,15.75
2023-02-24T13:32:26.096Z,15.74
2023-02-24T13:34:53.131Z,15.76
2023-02-24T13:37:39.777Z,15.51
2023-02-24T13:40:16.697Z,15.22
2023-02-24T13:42:56.867Z,15.11
2023-02-24T13:45:27.729Z,15.15
2023-02-24T13:48:03.543Z,15.08
2023-02-24T13:50:52.595Z,15.41
2023-02-24T13:54:03.947Z,15.63
2023-02-24T13:56:59.240Z,15.80
2023-02-24T13:59:52.104Z,16.16
2023-02-24T14:02:22.048Z,15.52
2023-02-24T14:04:51.724Z,15.62
2023-02-24T14:07:23.558Z,15.90
2023-02-24T14:10:02.639Z,16.07
2023-02-24T14:12:34.571Z,15.94
2023-02-24T14:15:02.829Z,15.85
2023-02-24T14:17:39.826Z,15.99
2023-02-24T14:20:10.724Z,15.56
2023-02-24T14:22:49.411Z,15.56
2023-02-24T14:25:18.218Z,15.53
2023-02-24T14:27:47.042Z,15.75
2023-02-24T14:30:39.546Z,15.98
2023-02-24T14:33:08.139Z,15.71
2023-02-24T14:35:45.848Z,15.81
2023-02-24T14:38:34.487Z,15.45
2023-02-24T14:41:03.067Z,15.46
2023-02-24T14:43:30.039Z,15.38
2023-02-24T14:46:00.157Z,15.31
2023-02-24T14:48:30.338Z,15.27
2023-02-24T14:51:10.345Z,15.26
2023-02-24T14:53:43.582Z,15.31
2023-02-24T14:56:13.103Z,15.18
2023-02-24T14:58:53.937Z,15.39
2023-02-24T15:01:32.278Z,15.06
2023-02-24T15:04:01.574Z,14.95
2023-02-24T15:06:40.837Z,14.82
2023-02-24T15:09:21.794Z,14.89
2023-02-24T15:11:49.434Z,14.68
2023-02-24T15:14:29.527Z,14.89
2023-02-24T15:17:00.280Z,14.68
2023-02-24T15:19:45.875Z,14.74
2023-02-24T15:22:21.920Z,14.57
2023-02-24T15:24:49.462Z,14.60
2023-02-24T15:27:16.310Z,14.54
2023-02-24T15:29:44.469Z,14.46
2023-02-24T15:32:17.455Z,14.35
2023-02-24T15:34:46.146Z,14.37
2023-02-24T15:37:15.972Z,14.19
2023-02-24T15:39:44.031Z,14.28
2023-02-24T15:42:17.252Z,14.14
2023-02-24T15:44:55.976Z,14.03
2023-02-24T15:47:28.972Z,14.02
2023-02-24T15:49:55.932Z,13.99
2023-02-24T15:52:26.080Z,13.93
2023-02-24T15:54:53.894Z,13.88
2023-02-24T15:57:21.311Z,13.88
2023-02-24T15:59:48.606Z,13.62
2023-02-24T16:02:20.940Z,13.68
2023-02-24T16:04:48.646Z,13.69
2023-02-24T16:07:24.883Z,13.77
2023-02-24T16:09:53.572Z,13.58
2023-02-24T16:12:32.267Z,13.49
2023-02-24T16:15:05.680Z,13.44
2023-02-24T16:17:40.467Z,13.43
2023-02-24T16:20:17.429Z,13.34
2023-02-24T16:22:44.463Z,13.22
2023-02-24T16:25:14.595Z,12.95
2023-02-24T16:27:41.538Z,13.03
2023-02-24T16:30:16.153Z,12.92
2023-02-24T16:32:43.198Z,12.83
2023-02-24T16:35:11.471Z,12.86
2023-02-24T16:37:38.513Z,12.72
2023-02-24T16:40:20.373Z,12.68
2023-02-24T16:42:48.645Z,12.56
2023-02-24T16:45:15.623Z,12.60
2023-02-24T16:47:43.326Z,12.51
2023-02-24T16:50:19.046Z,12.59
2023-02-24T16:52:45.885Z,12.68
2023-02-24T16:55:14.343Z,12.54
2023-02-24T16:57:41.869Z,12.39
2023-02-24T17:00:11.627Z,12.41
2023-02-24T17:02:40.418Z,12.32
2023-02-24T17:05:07.980Z,12.30
2023-02-24T17:07:39.408Z,12.24
2023-02-24T17:10:06.963Z,12.25
2023-02-24T17:12:33.810Z,12.02
2023-02-24T17:15:00.822Z,12.01
2023-02-24T17:17:27.769Z,12.03
2023-02-24T17:19:54.636Z,11.93
2023-02-24T17:22:22.434Z,11.81
2023-02-24T17:24:49.676Z,11.81
2023-02-24T17:27:16.516Z,11.79
2023-02-24T17:29:43.227Z,11.79
2023-02-24T17:32:10.205Z,11.83
2023-02-24T17:34:37.256Z,11.61
2023-02-24T17:37:04.219Z,11.65
2023-02-24T17:39:31.106Z,11.66
2023-02-24T17:41:58.146Z,11.78
2023-02-24T17:44:25.185Z,11.71
2023-02-24T17:46:52.417Z,11.56
2023-02-24T17:49:19.395Z,11.68
2023-02-24T17:51:46.234Z,11.63
2023-02-24T17:54:12.953Z,11.46
2023-02-24T17:56:39.922Z,11.33
2023-02-24T17:59:06.840Z,11.30
2023-02-24T18:01:33.738Z,11.39
2023-02-24T18:04:00.605Z,11.37
2023-02-24T18:06:27.530Z,11.43
2023-02-24T18:08:55.234Z,11.19
2023-02-24T18:11:22.109Z,11.27
2023-02-24T18:13:52.822Z,11.07
2023-02-24T18:16:20.144Z,11.21
2023-02-24T18:18:47.339Z,11.11
2023-02-24T18:21:14.219Z,11.11
2023-02-24T18:23:41.141Z,11.01
2023-02-24T18:26:09.041Z,10.95
2023-02-24T18:28:37.207Z,11.02
2023-02-24T18:31:16.403Z,11.11
2023-02-24T18:33:43.830Z,10.92
2023-02-24T18:36:11.254Z,10.72
2023-02-24T18:38:38.180Z,10.76
2023-02-24T18:41:07.497Z,10.90
2023-02-24T18:43:35.788Z,10.90
2023-02-24T18:46:05.965Z,10.82
2023-02-24T18:48:33.991Z,10.75
2023-02-24T18:51:01.629Z,10.76
2023-02-24T18:53:31.234Z,10.84
2023-02-24T18:56:02.758Z,10.88
2023-02-24T18:58:30.642Z,10.81
2023-02-24T19:00:57.526Z,10.92
2023-02-24T19:03:24.701Z,10.75
2023-02-24T19:05:52.201Z,10.74
2023-02-24T19:08:19.282Z,10.65
2023-02-24T19:10:46.137Z,10.70
2023-02-24T19:13:13.034Z,10.64
2023-02-24T19:15:40.398Z,10.54
2023-02-24T19:18:07.570Z,10.81
2023-02-24T19:20:34.444Z,10.79
2023-02-24T19:23:01.557Z,10.54
2023-02-24T19:25:28.470Z,10.50
2023-02-24T19:27:55.343Z,10.60
2023-02-24T19:30:22.293Z,10.46
2023-02-24T19:32:49.781Z,10.58
2023-02-24T19:35:16.973Z,10.51
2023-02-24T19:37:43.866Z,10.46
2023-02-24T19:40:11.461Z,10.56
2023-02-24T19:42:38.326Z,10.33
2023-02-24T19:45:05.613Z,10.23
2023-02-24T19:47:33.182Z,10.09
2023-02-24T19:50:00.097Z,10.00
2023-02-24T19:52:27.045Z,9.97
2023-02-24T19:54:54.461Z,10.12
2023-02-24T19:57:21.349Z,10.05
2023-02-24T19:59:51.972Z,9.81
2023-02-24T20:02:18.985Z,9.91
2023-02-24T20:04:45.965Z,9.89
2023-02-24T20:07:12.944Z,9.75
2023-02-24T20:09:42.078Z,9.90
2023-02-24T20:12:09.705Z,9.83
2023-02-24T20:14:36.630Z,9.88
2023-02-24T20:17:03.604Z,9.67
2023-02-24T20:19:33.029Z,9.72
2023-02-24T20:22:01.004Z,9.54
2023-02-24T20:24:30.243Z,9.61
2023-02-24T20:26:57.105Z,9.52
2023-02-24T20:29:24.169Z,9.65
2023-02-24T20:31:51.186Z,9.67
2023-02-24T20:34:18.373Z,9.70
2023-02-24T20:36:45.495Z,9.72
2023-02-24T20:39:12.639Z,9.83
2023-02-24T20:41:40.121Z,9.91
2023-02-24T20:44:08.178Z,9.89
2023-02-24T20:46:35.296Z,9.96
2023-02-24T20:49:07.849Z,9.94
2023-02-24T20:51:37.308Z,9.82
2023-02-24T20:54:11.493Z,9.91
2023-02-24T20:56:40.168Z,10.01
2023-02-24T20:59:12.267Z,9.91
2023-02-24T21:01:39.739Z,9.72
2023-02-24T21:04:08.075Z,9.76
2023-02-24T21:06:36.220Z,9.79
2023-02-24T21:09:04.046Z,9.73
2023-02-24T21:11:31.020Z,9.69
2023-02-24T21:13:58.629Z,9.69
2023-02-24T21:16:27.025Z,9.62
2023-02-24T21:18:54.277Z,9.46
2023-02-24T21:21:21.405Z,9.62
2023-02-24T21:23:48.714Z,9.55
2023-02-24T21:26:16.203Z,9.70
2023-02-24T21:28:43.273Z,9.64
2023-02-24T21:31:12.108Z,9.59
2023-02-24T21:33:39.385Z,9.71
2023-02-24T21:36:09.315Z,9.70
2023-02-24T21:38:37.365Z,9.74
2023-02-24T21:41:07.301Z,9.74
2023-02-24T21:43:34.629Z,9.67
2023-02-24T21:46:02.895Z,9.71
2023-02-24T21:48:29.839Z,9.66
2023-02-24T21:51:00.113Z,9.69
2023-02-24T21:53:30.207Z,9.74
2023-02-24T21:56:04.592Z,9.64
2023-02-24T21:58:32.867Z,9.58
2023-02-24T22:00:59.807Z,9.55
2023-02-24T22:03:26.850Z,9.53
2023-02-24T22:05:54.594Z,9.61
2023-02-24T22:08:21.437Z,9.55
2023-02-24T22:10:56.527Z,9.36
2023-02-24T22:13:23.378Z,9.48
2023-02-24T22:15:50.026Z,9.45
2023-02-24T22:18:16.904Z,9.47
2023-02-24T22:20:43.845Z,9.45
2023-02-24T22:23:10.716Z,9.36
2023-02-24T22:25:37.611Z,9.43
2023-02-24T22:28:04.709Z,9.27
2023-02-24T22:30:32.149Z,9.36
2023-02-24T22:32:59.031Z,9.24
2023-02-24T22:35:25.884Z,9.22
2023-02-24T22:37:53.804Z,9.26
2023-02-24T22:40:20.924Z,9.14
2023-02-24T22:42:47.928Z,9.12
2023-02-24T22:45:14.834Z,9.18
2023-02-24T22:47:41.735Z,9.17
2023-02-24T22:50:09.753Z,9.32
2023-02-24T22:52:36.613Z,9.30
2023-02-24T22:55:03.303Z,9.46
2023-02-24T22:57:32.880Z,9.43
2023-02-24T22:59:59.863Z,9.35
2023-02-24T23:02:27.563Z,9.38
2023-02-24T23:04:54.440Z,9.45
2023-02-24T23:07:21.362Z,9.47
2023-02-24T23:09:53.185Z,9.26
2023-02-24T23:12:22.385Z,9.14
2023-02-24T23:14:49.418Z,9.02
2023-02-24T23:17:16.314Z,9.05
2023-02-24T23:19:43.179Z,9.15
2023-02-24T23:22:10.036Z,9.07
2023-02-24T23:24:36.693Z,8.66
2023-02-24T23:27:03.967Z,8.84
2023-02-24T23:29:30.996Z,8.84
2023-02-24T23:31:58.252Z,8.81
2023-02-24T23:34:26.043Z,8.76
2023-02-24T23:36:52.985Z,8.68
2023-02-24T23:39:23.904Z,8.67
2023-02-24T23:41:56.732Z,8.84
2023-02-24T23:44:23.982Z,8.86
2023-02-24T23:46:50.895Z,8.85
2023-02-24T23:49:17.768Z,8.84
2023-02-24T23:51:48.963Z,8.86
2023-02-24T23:54:17.558Z,8.68
2023-02-24T23:56:44.518Z,8.72
2023-02-24T23:59:12.023Z,8.69
